South Wardsboro, Vermont
Current Conditions -  °F | °C
As of 11:54 PM on Monday 20 Oct 2014 (Local Time) from KDDH Reporting Station
Overcast Overcast  
Wind Chill: 50°   Ceiling: 8000
Heat Index: 50°   Visibility: 10mi
Dew Point: 37°   Wind: 3mph
Humidity: 61%   Direction: 120°ESE
Pressure: 29.94"   Gusts: NA
Location:  43.0205°N, 72.8064°W
Report Text: KDDH 210354Z AUTO 12003KT 10SM BKN080 OVC100 10/03 A2994 RMK AO2 SLP139 T01000028
Loading
Personal Weather Stations






























Interactive Weather Map New forecast layout! Learn more

10-Day Weather Forecast

Advertisements
Track Severe Weather on mobile